createdAt,value
2018-08-04T00:01:20.288Z,5.40
2018-08-04T00:03:48.650Z,5.33
2018-08-04T00:06:17.049Z,5.57
2018-08-04T00:08:45.424Z,5.33
2018-08-04T00:11:13.814Z,5.10
2018-08-04T00:13:42.186Z,5.10
2018-08-04T00:16:10.580Z,4.70
2018-08-04T00:18:38.975Z,4.77
2018-08-04T00:21:07.350Z,5.10
2018-08-04T00:23:35.735Z,4.80
2018-08-04T00:26:04.140Z,4.93
2018-08-04T00:28:32.764Z,4.83
2018-08-04T00:31:01.118Z,4.47
2018-08-04T00:33:29.520Z,4.73
2018-08-04T00:35:57.930Z,5.20
2018-08-04T00:38:26.272Z,4.80
2018-08-04T00:40:54.683Z,4.53
2018-08-04T00:43:23.062Z,4.90
2018-08-04T00:45:51.482Z,5.23
2018-08-04T00:48:19.902Z,5.10
2018-08-04T00:50:48.262Z,5.10
2018-08-04T00:53:16.622Z,5.70
2018-08-04T00:55:44.986Z,5.50
2018-08-04T00:58:13.360Z,5.20
2018-08-04T01:00:43.456Z,5.10
2018-08-04T01:03:11.826Z,4.90
2018-08-04T01:05:40.998Z,4.53
2018-08-04T01:08:12.904Z,4.80
2018-08-04T01:10:41.298Z,5.00
2018-08-04T01:13:09.642Z,4.60
2018-08-04T01:15:38.024Z,4.83
2018-08-04T01:18:06.398Z,4.87
2018-08-04T01:20:34.745Z,4.80
2018-08-04T01:23:03.082Z,4.93
2018-08-04T01:25:31.441Z,4.83
2018-08-04T01:27:59.870Z,4.53
2018-08-04T01:30:28.294Z,4.90
2018-08-04T01:32:56.672Z,4.43
2018-08-04T01:35:25.056Z,4.53
2018-08-04T01:37:53.406Z,5.00
2018-08-04T01:40:21.812Z,4.90
2018-08-04T01:42:50.206Z,4.70
2018-08-04T01:45:18.592Z,5.10
2018-08-04T01:47:46.970Z,4.70
2018-08-04T01:50:15.355Z,5.30
2018-08-04T01:52:45.762Z,4.70
2018-08-04T01:55:14.138Z,5.27
2018-08-04T01:57:42.540Z,5.37
2018-08-04T02:00:10.898Z,5.53
2018-08-04T02:02:39.380Z,6.13
2018-08-04T02:05:07.854Z,6.70
2018-08-04T02:07:36.212Z,6.10
2018-08-04T02:10:05.684Z,5.90
2018-08-04T02:12:34.063Z,5.27
2018-08-04T02:15:02.472Z,5.00
2018-08-04T02:17:30.820Z,5.20
2018-08-04T02:19:59.196Z,5.10
2018-08-04T02:22:27.598Z,4.90
2018-08-04T02:24:55.956Z,4.90
2018-08-04T02:27:24.395Z,5.53
2018-08-04T02:29:52.793Z,6.13
2018-08-04T02:32:21.200Z,7.30
2018-08-04T02:34:49.561Z,6.83
2018-08-04T02:37:17.911Z,7.73
2018-08-04T02:39:46.327Z,7.90
2018-08-04T02:42:14.734Z,7.80
2018-08-04T02:44:43.711Z,7.40
2018-08-04T02:47:12.082Z,8.33
2018-08-04T02:49:40.462Z,7.77
2018-08-04T02:52:08.829Z,8.33
2018-08-04T02:54:37.216Z,6.93
2018-08-04T02:57:05.624Z,6.90
2018-08-04T02:59:34.008Z,7.27
2018-08-04T03:02:02.379Z,6.60
2018-08-04T03:04:30.793Z,6.53
2018-08-04T03:06:59.201Z,6.17
2018-08-04T03:09:27.605Z,6.07
2018-08-04T03:11:55.716Z,6.00
2018-08-04T03:14:24.068Z,6.10
2018-08-04T03:16:52.459Z,5.97
2018-08-04T03:19:21.973Z,5.70
2018-08-04T03:21:50.323Z,6.03
2018-08-04T03:24:18.671Z,6.03
2018-08-04T03:26:47.069Z,6.10
2018-08-04T03:29:15.410Z,6.57
2018-08-04T03:31:43.744Z,6.63
2018-08-04T03:34:12.113Z,6.53
2018-08-04T03:36:40.521Z,7.03
2018-08-04T03:39:10.605Z,6.70
2018-08-04T03:41:38.994Z,6.00
2018-08-04T03:44:07.503Z,5.93
2018-08-04T03:46:36.253Z,5.53
2018-08-04T03:49:04.705Z,5.73
2018-08-04T03:51:33.079Z,5.70
2018-08-04T03:54:01.465Z,5.83
2018-08-04T03:56:29.937Z,5.90
2018-08-04T03:58:58.897Z,5.67
2018-08-04T04:01:27.119Z,5.90
2018-08-04T04:03:55.435Z,6.00
2018-08-04T04:06:23.777Z,6.03
2018-08-04T04:08:52.131Z,6.20
2018-08-04T04:11:20.483Z,6.47
2018-08-04T04:13:48.587Z,6.40
2018-08-04T04:16:17.003Z,6.80
2018-08-04T04:18:45.385Z,6.30
2018-08-04T04:21:13.759Z,6.83
2018-08-04T04:23:42.155Z,6.70
2018-08-04T04:26:10.541Z,6.57
2018-08-04T04:28:38.889Z,6.60
2018-08-04T04:31:07.254Z,6.27
2018-08-04T04:33:35.691Z,6.53
2018-08-04T04:36:04.064Z,6.87
2018-08-04T04:38:33.690Z,7.13
2018-08-04T04:41:02.036Z,6.97
2018-08-04T04:43:30.479Z,6.67
2018-08-04T04:45:58.833Z,6.80
2018-08-04T04:48:27.252Z,7.03
2018-08-04T04:50:55.905Z,6.33
2018-08-04T04:53:24.271Z,7.50
2018-08-04T04:55:52.721Z,6.87
2018-08-04T04:58:21.129Z,7.03
2018-08-04T05:00:49.532Z,7.33
2018-08-04T05:03:17.996Z,7.07
2018-08-04T05:05:46.340Z,7.10
2018-08-04T05:08:15.686Z,7.07
2018-08-04T05:10:43.762Z,7.63
2018-08-04T05:13:12.111Z,7.70
2018-08-04T05:15:40.480Z,8.27
2018-08-04T05:18:08.894Z,8.17
2018-08-04T05:20:37.272Z,8.20
2018-08-04T05:23:05.785Z,7.80
2018-08-04T05:25:34.222Z,7.57
2018-08-04T05:28:02.564Z,7.43
2018-08-04T05:30:30.945Z,7.27
2018-08-04T05:32:59.332Z,8.50
2018-08-04T05:35:27.704Z,8.50
2018-08-04T05:37:56.098Z,9.00
2018-08-04T05:40:24.466Z,9.40
2018-08-04T05:42:52.833Z,9.10
2018-08-04T05:45:21.210Z,10.10
2018-08-04T05:47:49.564Z,9.20
2018-08-04T05:50:17.940Z,9.10
2018-08-04T05:52:46.342Z,8.97
2018-08-04T05:55:14.720Z,8.80
2018-08-04T05:57:43.122Z,8.53
2018-08-04T06:00:11.458Z,9.53
2018-08-04T06:02:39.860Z,9.33
2018-08-04T06:05:08.756Z,9.77
2018-08-04T06:07:37.254Z,9.43
2018-08-04T06:10:05.696Z,10.77
2018-08-04T06:12:34.192Z,10.00
2018-08-04T06:15:02.251Z,8.70
2018-08-04T06:17:30.686Z,9.13
2018-08-04T06:19:59.014Z,8.70
2018-08-04T06:22:27.117Z,8.90
2018-08-04T06:24:55.512Z,8.17
2018-08-04T06:27:23.897Z,8.57
2018-08-04T06:29:52.306Z,7.87
2018-08-04T06:32:20.686Z,8.03
2018-08-04T06:34:49.062Z,8.20
2018-08-04T06:37:17.503Z,8.60
2018-08-04T06:39:45.988Z,8.03
2018-08-04T06:42:14.432Z,7.37
2018-08-04T06:44:42.872Z,7.30
2018-08-04T06:47:11.228Z,8.00
2018-08-04T06:49:39.574Z,8.17
2018-08-04T06:52:08.033Z,7.50
2018-08-04T06:54:36.460Z,7.20
2018-08-04T06:57:04.865Z,7.33
2018-08-04T06:59:33.230Z,7.27
2018-08-04T07:02:01.631Z,7.20
2018-08-04T07:04:30.097Z,6.30
2018-08-04T07:06:58.477Z,6.23
2018-08-04T07:09:26.854Z,5.50
2018-08-04T07:11:55.217Z,5.47
2018-08-04T07:14:23.588Z,6.10
2018-08-04T07:16:51.974Z,4.97
2018-08-04T07:19:20.334Z,5.37
2018-08-04T07:21:48.702Z,5.77
2018-08-04T07:24:17.112Z,5.50
2018-08-04T07:26:46.298Z,8.03
2018-08-04T07:29:14.668Z,5.20
2018-08-04T07:31:43.080Z,4.90
2018-08-04T07:34:11.508Z,4.40
2018-08-04T07:36:39.909Z,5.13
2018-08-04T07:39:09.420Z,4.90
2018-08-04T07:41:37.910Z,4.63
2018-08-04T07:44:06.678Z,4.13
2018-08-04T07:46:35.380Z,3.93
2018-08-04T07:49:03.751Z,3.73
2018-08-04T07:51:32.355Z,3.60
2018-08-04T07:54:00.790Z,3.80
2018-08-04T07:56:29.150Z,3.00
2018-08-04T07:58:57.700Z,3.30
2018-08-04T08:01:26.135Z,3.17
2018-08-04T08:03:54.605Z,3.10
2018-08-04T08:06:23.015Z,3.37
2018-08-04T08:08:51.454Z,3.07
2018-08-04T08:11:19.848Z,2.90
2018-08-04T08:13:49.301Z,3.00
2018-08-04T08:16:17.675Z,2.90
2018-08-04T08:18:46.060Z,2.53
2018-08-04T08:21:14.511Z,2.30
2018-08-04T08:23:42.994Z,2.50
2018-08-04T08:26:12.957Z,2.53
2018-08-04T08:28:42.157Z,2.20
2018-08-04T08:31:10.667Z,2.53
2018-08-04T08:33:39.900Z,2.70
2018-08-04T08:36:08.791Z,2.30
2018-08-04T08:38:37.220Z,2.60
2018-08-04T08:41:05.812Z,2.30
2018-08-04T08:43:34.225Z,2.30
2018-08-04T08:46:02.599Z,2.27
2018-08-04T08:48:32.006Z,3.23
2018-08-04T08:51:00.319Z,2.20
2018-08-04T08:53:28.872Z,2.70
2018-08-04T08:55:57.070Z,2.47
2018-08-04T08:58:25.435Z,2.63
2018-08-04T09:00:53.862Z,2.60
2018-08-04T09:03:21.933Z,2.80
2018-08-04T09:05:50.354Z,2.80
2018-08-04T09:08:18.762Z,2.77
2018-08-04T09:10:47.447Z,2.50
2018-08-04T09:13:15.867Z,2.67
2018-08-04T09:15:44.372Z,2.50
2018-08-04T09:18:12.827Z,2.70
2018-08-04T09:20:40.930Z,3.07
2018-08-04T09:23:09.372Z,2.63
2018-08-04T09:25:37.773Z,2.80
2018-08-04T09:28:06.230Z,2.70
2018-08-04T09:30:34.686Z,2.80
2018-08-04T09:33:03.148Z,2.70
2018-08-04T09:35:31.615Z,2.70
2018-08-04T09:38:01.044Z,2.50
2018-08-04T09:40:29.374Z,2.70
2018-08-04T09:42:57.825Z,2.80
2018-08-04T09:45:26.272Z,2.80
2018-08-04T09:47:54.721Z,2.40
2018-08-04T09:50:23.100Z,2.60
2018-08-04T09:52:51.469Z,3.00
2018-08-04T09:55:20.008Z,2.73
2018-08-04T09:57:48.372Z,2.83
2018-08-04T10:00:22.038Z,2.70
2018-08-04T10:02:50.387Z,2.50
2018-08-04T10:05:18.824Z,3.00
2018-08-04T10:07:47.175Z,2.53
2018-08-04T10:10:15.565Z,2.57
2018-08-04T10:12:43.971Z,3.30
2018-08-04T10:15:16.249Z,2.77
2018-08-04T10:17:44.685Z,2.87
2018-08-04T10:20:13.075Z,2.80
2018-08-04T10:22:41.455Z,2.47
2018-08-04T10:25:09.835Z,2.50
2018-08-04T10:27:38.226Z,2.67
2018-08-04T10:30:09.471Z,2.60
2018-08-04T10:32:37.843Z,2.87
2018-08-04T10:35:06.625Z,2.80
2018-08-04T10:37:34.999Z,2.67
2018-08-04T10:40:03.406Z,3.20
2018-08-04T10:42:31.877Z,2.70
2018-08-04T10:45:00.370Z,2.90
2018-08-04T10:47:28.445Z,2.87
2018-08-04T10:49:56.817Z,2.90
2018-08-04T10:52:25.181Z,3.00
2018-08-04T10:54:53.550Z,3.20
2018-08-04T10:57:22.075Z,2.63
2018-08-04T10:59:50.425Z,2.47
2018-08-04T11:02:18.839Z,2.90
2018-08-04T11:04:47.310Z,2.90
2018-08-04T11:07:15.652Z,2.60
2018-08-04T11:09:44.072Z,2.50
2018-08-04T11:12:12.448Z,2.47
2018-08-04T11:14:40.804Z,2.40
2018-08-04T11:17:09.230Z,2.80
2018-08-04T11:19:37.609Z,2.57
2018-08-04T11:22:06.048Z,2.80
2018-08-04T11:24:34.466Z,3.03
2018-08-04T11:27:02.845Z,3.10
2018-08-04T11:29:31.291Z,3.00
2018-08-04T11:31:59.690Z,2.60
2018-08-04T11:34:28.082Z,2.97
2018-08-04T11:36:56.455Z,3.17
2018-08-04T11:39:24.826Z,2.90
2018-08-04T11:41:53.245Z,2.77
2018-08-04T11:44:21.653Z,2.90
2018-08-04T11:46:50.105Z,3.30
2018-08-04T11:49:18.496Z,2.93
2018-08-04T11:51:46.959Z,3.37
2018-08-04T11:54:15.357Z,3.20
2018-08-04T11:56:43.741Z,3.13
2018-08-04T11:59:12.191Z,3.70
2018-08-04T12:01:40.599Z,3.73
2018-08-04T12:04:08.941Z,3.07
2018-08-04T12:06:37.300Z,3.10
2018-08-04T12:09:08.749Z,2.70
2018-08-04T12:11:37.129Z,2.67
2018-08-04T12:14:05.579Z,3.17
2018-08-04T12:16:33.921Z,3.17
2018-08-04T12:19:02.433Z,3.00
2018-08-04T12:21:30.789Z,3.03
2018-08-04T12:23:58.867Z,3.30
2018-08-04T12:26:27.297Z,3.37
2018-08-04T12:28:55.687Z,3.03
2018-08-04T12:31:24.141Z,2.97
2018-08-04T12:33:52.580Z,2.80
2018-08-04T12:36:20.951Z,3.30
2018-08-04T12:38:49.345Z,3.10
2018-08-04T12:41:17.747Z,2.90
2018-08-04T12:43:46.165Z,3.33
2018-08-04T12:46:14.593Z,3.37
2018-08-04T12:48:42.989Z,3.10
2018-08-04T12:51:13.377Z,3.20
2018-08-04T12:53:41.757Z,2.87
2018-08-04T12:56:10.093Z,3.00
2018-08-04T12:58:38.512Z,2.97
2018-08-04T13:01:06.975Z,2.77
2018-08-04T13:03:35.361Z,2.87
2018-08-04T13:06:03.779Z,2.80
2018-08-04T13:08:31.829Z,2.53
2018-08-04T13:11:00.227Z,2.73
2018-08-04T13:13:28.319Z,2.73
2018-08-04T13:15:56.673Z,2.70
2018-08-04T13:18:25.031Z,2.63
2018-08-04T13:20:53.418Z,2.90
2018-08-04T13:23:21.777Z,3.30
2018-08-04T13:25:50.157Z,2.90
2018-08-04T13:28:18.537Z,3.00
2018-08-04T13:30:47.153Z,2.70
2018-08-04T13:33:15.512Z,3.17
2018-08-04T13:35:43.863Z,3.10
2018-08-04T13:38:12.191Z,3.00
2018-08-04T13:40:40.545Z,2.90
2018-08-04T13:43:08.889Z,3.03
2018-08-04T13:45:37.255Z,3.03
2018-08-04T13:48:05.627Z,3.17
2018-08-04T13:50:33.716Z,3.53
2018-08-04T13:53:05.227Z,3.30
2018-08-04T13:55:33.607Z,3.20
2018-08-04T13:58:02.013Z,3.23
2018-08-04T14:00:31.213Z,3.00
2018-08-04T14:03:00.080Z,3.30
2018-08-04T14:05:28.547Z,3.00
2018-08-04T14:07:57.060Z,3.47
2018-08-04T14:10:25.568Z,3.00
2018-08-04T14:12:53.967Z,3.17
2018-08-04T14:15:22.337Z,3.30
2018-08-04T14:17:50.688Z,3.33
2018-08-04T14:20:19.046Z,3.30
2018-08-04T14:22:47.499Z,3.40
2018-08-04T14:25:15.835Z,3.27
2018-08-04T14:27:44.197Z,3.13
2018-08-04T14:30:12.563Z,3.20
2018-08-04T14:32:40.935Z,3.27
2018-08-04T14:35:09.297Z,3.40
2018-08-04T14:37:37.661Z,3.40
2018-08-04T14:40:06.069Z,3.60
2018-08-04T14:42:34.473Z,4.30
2018-08-04T14:45:02.855Z,4.67
2018-08-04T14:47:31.253Z,4.10
2018-08-04T14:49:59.668Z,5.30
2018-08-04T14:52:28.114Z,4.40
2018-08-04T14:54:56.215Z,4.00
2018-08-04T14:57:24.275Z,4.33
2018-08-04T14:59:52.655Z,5.33
2018-08-04T15:02:21.035Z,4.13
2018-08-04T15:04:50.442Z,4.73
2018-08-04T15:07:18.819Z,4.40
2018-08-04T15:09:47.201Z,4.17
2018-08-04T15:12:15.585Z,5.27
2018-08-04T15:14:44.010Z,4.43
2018-08-04T15:17:12.405Z,5.50
2018-08-04T15:19:40.787Z,5.10
2018-08-04T15:22:09.177Z,5.10
2018-08-04T15:24:37.562Z,5.17
2018-08-04T15:27:05.657Z,5.70
2018-08-04T15:29:34.223Z,6.00
2018-08-04T15:32:03.291Z,5.20
2018-08-04T15:34:32.450Z,5.00
2018-08-04T15:37:01.559Z,5.10
2018-08-04T15:39:29.969Z,4.90
2018-08-04T15:41:59.709Z,4.90
2018-08-04T15:44:28.087Z,4.77
2018-08-04T15:46:56.523Z,4.23
2018-08-04T15:49:24.987Z,4.37
2018-08-04T15:51:53.477Z,4.47
2018-08-04T15:54:22.007Z,4.10
2018-08-04T15:56:50.416Z,4.40
2018-08-04T15:59:18.993Z,4.23
2018-08-04T16:01:47.508Z,3.73
2018-08-04T16:04:15.889Z,4.20
2018-08-04T16:06:44.281Z,3.93
2018-08-04T16:09:12.725Z,4.03
2018-08-04T16:11:41.799Z,3.83
2018-08-04T16:14:10.540Z,4.00
2018-08-04T16:16:39.686Z,3.80
2018-08-04T16:19:08.129Z,3.80
2018-08-04T16:21:36.637Z,3.80
2018-08-04T16:24:05.085Z,3.60
2018-08-04T16:26:33.496Z,3.90
2018-08-04T16:29:01.926Z,4.00
2018-08-04T16:31:30.398Z,4.27
2018-08-04T16:33:58.768Z,4.00
2018-08-04T16:36:27.213Z,3.80
2018-08-04T16:38:55.591Z,3.83
2018-08-04T16:41:23.946Z,3.50
2018-08-04T16:43:52.381Z,3.87
2018-08-04T16:46:20.834Z,3.80
2018-08-04T16:48:49.235Z,3.70
2018-08-04T16:51:17.641Z,3.40
2018-08-04T16:53:47.076Z,3.13
2018-08-04T16:56:15.517Z,3.57
2018-08-04T16:58:43.915Z,3.33
2018-08-04T17:01:12.363Z,3.53
2018-08-04T17:03:40.764Z,3.37
2018-08-04T17:06:09.143Z,3.40
2018-08-04T17:08:37.517Z,3.60
2018-08-04T17:11:05.947Z,3.60
2018-08-04T17:13:34.385Z,3.40
2018-08-04T17:16:02.767Z,3.63
2018-08-04T17:18:31.140Z,3.50
2018-08-04T17:20:59.509Z,3.80
2018-08-04T17:23:28.077Z,3.70
2018-08-04T17:25:56.425Z,3.30
2018-08-04T17:28:24.897Z,3.80
2018-08-04T17:30:53.391Z,3.80
2018-08-04T17:33:21.849Z,3.50
2018-08-04T17:35:54.105Z,3.70
2018-08-04T17:38:22.565Z,3.40
2018-08-04T17:40:50.964Z,4.00
2018-08-04T17:43:19.337Z,4.10
2018-08-04T17:45:47.704Z,4.00
2018-08-04T17:48:16.054Z,4.80
2018-08-04T17:50:47.823Z,4.80
2018-08-04T17:53:16.260Z,5.80
2018-08-04T17:55:44.665Z,5.57
2018-08-04T17:58:13.080Z,5.00
2018-08-04T18:00:41.470Z,5.10
2018-08-04T18:03:09.829Z,5.67
2018-08-04T18:05:38.250Z,7.27
2018-08-04T18:08:06.702Z,7.43
2018-08-04T18:10:35.115Z,7.13
2018-08-04T18:13:03.549Z,7.40
2018-08-04T18:15:32.038Z,7.60
2018-08-04T18:18:00.543Z,7.80
2018-08-04T18:20:28.965Z,8.13
2018-08-04T18:22:57.490Z,9.13
2018-08-04T18:25:25.862Z,8.60
2018-08-04T18:27:54.236Z,8.37
2018-08-04T18:30:23.099Z,9.07
2018-08-04T18:32:51.499Z,9.50
2018-08-04T18:35:20.027Z,10.03
2018-08-04T18:37:48.476Z,10.07
2018-08-04T18:40:16.888Z,9.67
2018-08-04T18:42:45.322Z,9.80
2018-08-04T18:45:13.816Z,12.47
2018-08-04T18:47:42.260Z,9.97
2018-08-04T18:50:10.711Z,9.63
2018-08-04T18:52:39.156Z,9.63
2018-08-04T18:55:07.622Z,9.07
2018-08-04T18:57:36.524Z,9.33
2018-08-04T19:00:06.154Z,9.30
2018-08-04T19:02:34.593Z,8.93
2018-08-04T19:05:03.066Z,9.73
2018-08-04T19:07:31.435Z,9.13
2018-08-04T19:09:59.977Z,9.53
2018-08-04T19:12:28.417Z,9.57
2018-08-04T19:14:56.867Z,9.50
2018-08-04T19:17:25.303Z,10.37
2018-08-04T19:19:53.693Z,9.90
2018-08-04T19:22:22.575Z,9.53
2018-08-04T19:25:06.287Z,9.83
2018-08-04T19:27:36.885Z,10.13
2018-08-04T19:30:12.344Z,9.90
2018-08-04T19:35:33.879Z,9.57
2018-08-04T19:38:05.814Z,9.77
2018-08-04T19:40:34.242Z,8.90
2018-08-04T19:43:02.667Z,7.97
2018-08-04T19:45:31.097Z,7.97
2018-08-04T19:48:01.690Z,8.30
2018-08-04T19:50:30.069Z,8.20
2018-08-04T19:52:58.473Z,7.17
2018-08-04T19:55:27.079Z,7.77
2018-08-04T19:57:55.478Z,7.23
2018-08-04T20:00:23.878Z,7.43
2018-08-04T20:02:52.251Z,6.87
2018-08-04T20:05:20.609Z,6.73
2018-08-04T20:07:49.039Z,6.80
2018-08-04T20:10:17.453Z,6.53
2018-08-04T20:12:45.831Z,5.80
2018-08-04T20:15:14.277Z,6.40
2018-08-04T20:17:42.661Z,5.87
2018-08-04T20:20:11.093Z,6.13
2018-08-04T20:22:39.600Z,5.77
2018-08-04T20:25:07.993Z,5.27
2018-08-04T20:27:36.409Z,5.80
2018-08-04T20:30:04.921Z,4.90
2018-08-04T20:32:32.975Z,5.97
2018-08-04T20:35:01.432Z,5.27
2018-08-04T20:37:29.743Z,5.80
2018-08-04T20:39:58.110Z,5.37
2018-08-04T20:42:26.478Z,5.73
2018-08-04T20:44:54.878Z,5.80
2018-08-04T20:47:23.269Z,5.80
2018-08-04T20:49:51.685Z,5.40
2018-08-04T20:52:20.080Z,5.90
2018-08-04T20:54:48.551Z,6.50
2018-08-04T20:57:17.019Z,6.07
2018-08-04T20:59:45.379Z,5.63
2018-08-04T21:02:13.762Z,5.63
2018-08-04T21:04:42.194Z,5.73
2018-08-04T21:07:11.013Z,6.10
2018-08-04T21:09:40.430Z,6.03
2018-08-04T21:12:08.520Z,6.00
2018-08-04T21:14:36.913Z,6.20
2018-08-04T21:17:05.314Z,6.23
2018-08-04T21:19:33.716Z,6.10
2018-08-04T21:22:02.369Z,6.00
2018-08-04T21:24:30.950Z,6.40
2018-08-04T21:26:59.380Z,6.47
2018-08-04T21:29:27.813Z,6.50
2018-08-04T21:31:56.246Z,6.33
2018-08-04T21:34:24.666Z,6.67
2018-08-04T21:36:53.060Z,6.90
2018-08-04T21:39:21.434Z,7.20
2018-08-04T21:41:49.826Z,7.57
2018-08-04T21:44:18.330Z,8.00
2018-08-04T21:46:48.323Z,7.70
2018-08-04T21:49:16.812Z,7.93
2018-08-04T21:51:46.486Z,7.63
2018-08-04T21:54:19.921Z,7.70
2018-08-04T21:56:46.121Z,7.80
2018-08-04T21:59:14.511Z,7.63
2018-08-04T22:01:48.420Z,8.77
2018-08-04T22:04:16.772Z,8.27
2018-08-04T22:06:50.258Z,8.63
2018-08-04T22:09:22.037Z,7.80
2018-08-04T22:11:50.437Z,7.80
2018-08-04T22:14:18.916Z,8.13
2018-08-04T22:16:47.835Z,8.23
2018-08-04T22:19:16.229Z,8.43
2018-08-04T22:21:44.538Z,8.70
2018-08-04T22:24:12.979Z,8.27
2018-08-04T22:26:41.330Z,8.63
2018-08-04T22:29:09.692Z,8.80
2018-08-04T22:31:38.184Z,9.10
2018-08-04T22:34:06.549Z,8.83
2018-08-04T22:36:34.961Z,8.67
2018-08-04T22:39:03.906Z,8.83
2018-08-04T22:41:32.276Z,9.17
2018-08-04T22:44:00.712Z,8.67
2018-08-04T22:46:29.082Z,9.10
2018-08-04T22:48:57.446Z,9.00
2018-08-04T22:51:28.032Z,9.03
2018-08-04T22:53:56.647Z,9.80
2018-08-04T22:56:25.233Z,9.53
2018-08-04T22:58:53.606Z,10.03
2018-08-04T23:01:22.074Z,9.87
2018-08-04T23:03:50.465Z,10.13
2018-08-04T23:06:18.862Z,9.83
2018-08-04T23:08:47.240Z,9.70
2018-08-04T23:11:15.594Z,9.67
2018-08-04T23:13:44.012Z,9.03
2018-08-04T23:16:12.428Z,9.87
2018-08-04T23:18:40.808Z,9.77
2018-08-04T23:21:09.154Z,10.33
2018-08-04T23:23:37.572Z,10.10
2018-08-04T23:26:06.216Z,10.57
2018-08-04T23:28:34.589Z,11.10
2018-08-04T23:31:02.933Z,10.13
2018-08-04T23:33:31.339Z,9.43
2018-08-04T23:35:59.704Z,9.87
2018-08-04T23:38:28.226Z,9.90
2018-08-04T23:40:59.571Z,10.73
2018-08-04T23:43:27.948Z,9.87
2018-08-04T23:45:56.340Z,11.30
2018-08-04T23:48:24.408Z,11.20
2018-08-04T23:50:52.874Z,10.27
2018-08-04T23:53:21.266Z,10.90
2018-08-04T23:55:49.676Z,10.67
2018-08-04T23:58:18.048Z,10.50
